sensor_id;sensor_type;location;lat;lon;timestamp;P1;durP1;ratioP1;P2;durP2;ratioP2
22660;SDS011;11497;52.222;21.246;2023-07-20T00:01:57;6.13;;;3.40;;
22660;SDS011;11497;52.222;21.246;2023-07-20T00:04:25;7.55;;;3.20;;
22660;SDS011;11497;52.222;21.246;2023-07-20T00:06:53;7.50;;;2.80;;
22660;SDS011;11497;52.222;21.246;2023-07-20T00:09:20;5.28;;;3.10;;
22660;SDS011;11497;52.222;21.246;2023-07-20T00:11:49;5.07;;;3.00;;
22660;SDS011;11497;52.222;21.246;2023-07-20T00:14:19;4.75;;;3.45;;
22660;SDS011;11497;52.222;21.246;2023-07-20T00:16:49;5.32;;;3.35;;
22660;SDS011;11497;52.222;21.246;2023-07-20T00:19:23;7.05;;;3.50;;
22660;SDS011;11497;52.222;21.246;2023-07-20T00:21:51;5.18;;;3.42;;
22660;SDS011;11497;52.222;21.246;2023-07-20T00:24:19;4.25;;;3.00;;
22660;SDS011;11497;52.222;21.246;2023-07-20T00:26:47;5.72;;;3.25;;
22660;SDS011;11497;52.222;21.246;2023-07-20T00:29:14;6.00;;;3.13;;
22660;SDS011;11497;52.222;21.246;2023-07-20T00:31:42;5.60;;;3.30;;
22660;SDS011;11497;52.222;21.246;2023-07-20T00:34:10;5.25;;;3.38;;
22660;SDS011;11497;52.222;21.246;2023-07-20T00:36:39;6.10;;;3.45;;
22660;SDS011;11497;52.222;21.246;2023-07-20T00:39:07;5.38;;;3.45;;
22660;SDS011;11497;52.222;21.246;2023-07-20T00:41:35;5.10;;;3.47;;
22660;SDS011;11497;52.222;21.246;2023-07-20T00:44:04;6.93;;;3.55;;
22660;SDS011;11497;52.222;21.246;2023-07-20T00:46:32;4.80;;;3.40;;
22660;SDS011;11497;52.222;21.246;2023-07-20T00:49:00;5.47;;;3.03;;
22660;SDS011;11497;52.222;21.246;2023-07-20T00:51:28;4.05;;;2.83;;
22660;SDS011;11497;52.222;21.246;2023-07-20T00:53:56;5.82;;;3.70;;
22660;SDS011;11497;52.222;21.246;2023-07-20T00:56:24;7.13;;;3.65;;
22660;SDS011;11497;52.222;21.246;2023-07-20T00:58:52;5.68;;;3.20;;
22660;SDS011;11497;52.222;21.246;2023-07-20T01:01:21;4.13;;;3.00;;
22660;SDS011;11497;52.222;21.246;2023-07-20T01:03:49;6.20;;;3.47;;
22660;SDS011;11497;52.222;21.246;2023-07-20T01:06:29;5.30;;;3.22;;
22660;SDS011;11497;52.222;21.246;2023-07-20T01:14:01;4.03;;;3.35;;
22660;SDS011;11497;52.222;21.246;2023-07-20T01:16:30;4.88;;;3.60;;
22660;SDS011;11497;52.222;21.246;2023-07-20T01:18:57;6.75;;;3.30;;
22660;SDS011;11497;52.222;21.246;2023-07-20T01:21:33;4.88;;;3.35;;
22660;SDS011;11497;52.222;21.246;2023-07-20T01:27:00;5.22;;;3.30;;
22660;SDS011;11497;52.222;21.246;2023-07-20T01:32:18;5.28;;;3.35;;
22660;SDS011;11497;52.222;21.246;2023-07-20T01:34:46;5.55;;;3.65;;
22660;SDS011;11497;52.222;21.246;2023-07-20T01:37:15;5.03;;;3.30;;
22660;SDS011;11497;52.222;21.246;2023-07-20T01:39:43;4.38;;;3.35;;
22660;SDS011;11497;52.222;21.246;2023-07-20T01:42:11;5.45;;;3.50;;
22660;SDS011;11497;52.222;21.246;2023-07-20T01:44:39;6.75;;;3.65;;
22660;SDS011;11497;52.222;21.246;2023-07-20T01:47:06;6.93;;;4.00;;
22660;SDS011;11497;52.222;21.246;2023-07-20T01:49:34;4.68;;;3.38;;
22660;SDS011;11497;52.222;21.246;2023-07-20T01:52:02;9.70;;;3.78;;
22660;SDS011;11497;52.222;21.246;2023-07-20T01:54:29;5.18;;;3.75;;
22660;SDS011;11497;52.222;21.246;2023-07-20T01:56:57;8.00;;;3.78;;
22660;SDS011;11497;52.222;21.246;2023-07-20T01:59:25;5.60;;;3.90;;
22660;SDS011;11497;52.222;21.246;2023-07-20T02:01:53;5.93;;;3.63;;
22660;SDS011;11497;52.222;21.246;2023-07-20T02:04:20;6.20;;;3.90;;
22660;SDS011;11497;52.222;21.246;2023-07-20T02:06:48;5.90;;;3.50;;
22660;SDS011;11497;52.222;21.246;2023-07-20T02:09:16;4.93;;;3.95;;
22660;SDS011;11497;52.222;21.246;2023-07-20T02:11:43;5.22;;;3.25;;
22660;SDS011;11497;52.222;21.246;2023-07-20T02:14:11;7.82;;;3.97;;
22660;SDS011;11497;52.222;21.246;2023-07-20T02:16:39;5.68;;;3.63;;
22660;SDS011;11497;52.222;21.246;2023-07-20T02:19:06;4.55;;;3.30;;
22660;SDS011;11497;52.222;21.246;2023-07-20T02:21:34;6.10;;;3.80;;
22660;SDS011;11497;52.222;21.246;2023-07-20T02:24:02;4.95;;;3.92;;
22660;SDS011;11497;52.222;21.246;2023-07-20T02:26:30;6.40;;;3.85;;
22660;SDS011;11497;52.222;21.246;2023-07-20T02:28:57;6.18;;;3.92;;
22660;SDS011;11497;52.222;21.246;2023-07-20T02:31:25;6.53;;;3.90;;
22660;SDS011;11497;52.222;21.246;2023-07-20T02:33:53;7.45;;;3.80;;
22660;SDS011;11497;52.222;21.246;2023-07-20T02:36:20;6.03;;;3.80;;
22660;SDS011;11497;52.222;21.246;2023-07-20T02:38:48;4.90;;;3.70;;
22660;SDS011;11497;52.222;21.246;2023-07-20T02:41:16;6.32;;;3.60;;
22660;SDS011;11497;52.222;21.246;2023-07-20T02:43:43;5.70;;;4.07;;
22660;SDS011;11497;52.222;21.246;2023-07-20T02:46:11;5.40;;;3.75;;
22660;SDS011;11497;52.222;21.246;2023-07-20T02:48:39;5.18;;;3.80;;
22660;SDS011;11497;52.222;21.246;2023-07-20T02:51:07;6.05;;;3.78;;
22660;SDS011;11497;52.222;21.246;2023-07-20T02:53:35;7.38;;;3.78;;
22660;SDS011;11497;52.222;21.246;2023-07-20T02:56:03;7.38;;;3.80;;
22660;SDS011;11497;52.222;21.246;2023-07-20T02:58:31;7.97;;;4.20;;
22660;SDS011;11497;52.222;21.246;2023-07-20T03:00:59;5.10;;;3.92;;
22660;SDS011;11497;52.222;21.246;2023-07-20T03:03:26;5.78;;;4.18;;
22660;SDS011;11497;52.222;21.246;2023-07-20T03:05:54;11.02;;;3.95;;
22660;SDS011;11497;52.222;21.246;2023-07-20T03:08:25;9.07;;;4.03;;
22660;SDS011;11497;52.222;21.246;2023-07-20T03:10:53;7.45;;;4.30;;
22660;SDS011;11497;52.222;21.246;2023-07-20T03:13:23;6.93;;;3.90;;
22660;SDS011;11497;52.222;21.246;2023-07-20T03:15:52;6.13;;;3.97;;
22660;SDS011;11497;52.222;21.246;2023-07-20T03:18:19;6.50;;;4.10;;
22660;SDS011;11497;52.222;21.246;2023-07-20T03:20:47;7.00;;;4.13;;
22660;SDS011;11497;52.222;21.246;2023-07-20T03:23:15;7.13;;;4.30;;
22660;SDS011;11497;52.222;21.246;2023-07-20T03:25:44;5.95;;;4.32;;
22660;SDS011;11497;52.222;21.246;2023-07-20T03:28:11;6.45;;;4.22;;
22660;SDS011;11497;52.222;21.246;2023-07-20T03:30:39;6.25;;;4.10;;
22660;SDS011;11497;52.222;21.246;2023-07-20T03:33:07;5.32;;;3.88;;
22660;SDS011;11497;52.222;21.246;2023-07-20T03:35:35;9.90;;;4.00;;
22660;SDS011;11497;52.222;21.246;2023-07-20T03:38:03;7.68;;;4.50;;
22660;SDS011;11497;52.222;21.246;2023-07-20T03:40:31;6.07;;;4.10;;
22660;SDS011;11497;52.222;21.246;2023-07-20T03:42:59;10.45;;;4.07;;
22660;SDS011;11497;52.222;21.246;2023-07-20T03:45:27;8.98;;;4.53;;
22660;SDS011;11497;52.222;21.246;2023-07-20T03:47:54;6.68;;;4.13;;
22660;SDS011;11497;52.222;21.246;2023-07-20T03:50:23;6.60;;;4.32;;
22660;SDS011;11497;52.222;21.246;2023-07-20T03:52:51;6.43;;;4.20;;
22660;SDS011;11497;52.222;21.246;2023-07-20T03:55:19;7.07;;;4.28;;
22660;SDS011;11497;52.222;21.246;2023-07-20T03:57:47;6.28;;;4.18;;
22660;SDS011;11497;52.222;21.246;2023-07-20T04:00:17;8.10;;;4.57;;
22660;SDS011;11497;52.222;21.246;2023-07-20T04:02:45;6.90;;;4.50;;
22660;SDS011;11497;52.222;21.246;2023-07-20T04:05:13;8.23;;;4.47;;
22660;SDS011;11497;52.222;21.246;2023-07-20T04:07:41;9.10;;;4.40;;
22660;SDS011;11497;52.222;21.246;2023-07-20T04:10:08;12.05;;;4.32;;
22660;SDS011;11497;52.222;21.246;2023-07-20T04:12:36;11.30;;;4.90;;
22660;SDS011;11497;52.222;21.246;2023-07-20T04:15:04;7.38;;;4.45;;
22660;SDS011;11497;52.222;21.246;2023-07-20T04:17:32;7.13;;;5.07;;
22660;SDS011;11497;52.222;21.246;2023-07-20T04:20:00;6.90;;;5.10;;
22660;SDS011;11497;52.222;21.246;2023-07-20T04:22:29;8.73;;;5.72;;
22660;SDS011;11497;52.222;21.246;2023-07-20T04:24:56;13.40;;;5.45;;
22660;SDS011;11497;52.222;21.246;2023-07-20T04:27:24;9.63;;;5.50;;
22660;SDS011;11497;52.222;21.246;2023-07-20T04:29:53;9.88;;;5.78;;
22660;SDS011;11497;52.222;21.246;2023-07-20T04:32:20;7.68;;;6.05;;
22660;SDS011;11497;52.222;21.246;2023-07-20T04:34:48;9.43;;;5.95;;
22660;SDS011;11497;52.222;21.246;2023-07-20T04:37:17;10.02;;;6.30;;
22660;SDS011;11497;52.222;21.246;2023-07-20T04:39:48;11.80;;;6.10;;
22660;SDS011;11497;52.222;21.246;2023-07-20T04:42:16;9.30;;;6.32;;
22660;SDS011;11497;52.222;21.246;2023-07-20T04:44:44;10.60;;;6.85;;
22660;SDS011;11497;52.222;21.246;2023-07-20T04:47:11;8.27;;;6.45;;
22660;SDS011;11497;52.222;21.246;2023-07-20T04:49:39;8.85;;;6.32;;
22660;SDS011;11497;52.222;21.246;2023-07-20T04:52:07;11.15;;;6.25;;
22660;SDS011;11497;52.222;21.246;2023-07-20T04:54:36;9.52;;;6.15;;
22660;SDS011;11497;52.222;21.246;2023-07-20T04:57:05;10.23;;;6.22;;
22660;SDS011;11497;52.222;21.246;2023-07-20T04:59:40;8.18;;;5.82;;
22660;SDS011;11497;52.222;21.246;2023-07-20T05:02:08;7.97;;;6.20;;
22660;SDS011;11497;52.222;21.246;2023-07-20T05:04:35;10.63;;;6.25;;
22660;SDS011;11497;52.222;21.246;2023-07-20T05:07:05;9.55;;;6.30;;
22660;SDS011;11497;52.222;21.246;2023-07-20T05:09:33;10.55;;;6.95;;
22660;SDS011;11497;52.222;21.246;2023-07-20T05:12:01;8.85;;;6.57;;
22660;SDS011;11497;52.222;21.246;2023-07-20T05:14:29;10.55;;;6.50;;
22660;SDS011;11497;52.222;21.246;2023-07-20T05:16:57;9.82;;;5.88;;
22660;SDS011;11497;52.222;21.246;2023-07-20T05:19:25;8.40;;;6.00;;
22660;SDS011;11497;52.222;21.246;2023-07-20T05:21:53;10.00;;;5.88;;
22660;SDS011;11497;52.222;21.246;2023-07-20T05:24:21;11.02;;;6.38;;
22660;SDS011;11497;52.222;21.246;2023-07-20T05:26:48;9.98;;;6.63;;
22660;SDS011;11497;52.222;21.246;2023-07-20T05:29:16;12.65;;;6.07;;
22660;SDS011;11497;52.222;21.246;2023-07-20T05:31:44;9.40;;;6.63;;
22660;SDS011;11497;52.222;21.246;2023-07-20T05:34:11;11.50;;;5.95;;
22660;SDS011;11497;52.222;21.246;2023-07-20T05:36:39;7.13;;;5.85;;
22660;SDS011;11497;52.222;21.246;2023-07-20T05:39:07;9.40;;;5.97;;
22660;SDS011;11497;52.222;21.246;2023-07-20T05:41:34;8.77;;;5.82;;
22660;SDS011;11497;52.222;21.246;2023-07-20T05:44:02;9.77;;;6.25;;
22660;SDS011;11497;52.222;21.246;2023-07-20T05:46:30;11.27;;;6.03;;
22660;SDS011;11497;52.222;21.246;2023-07-20T05:49:16;11.35;;;5.50;;
22660;SDS011;11497;52.222;21.246;2023-07-20T05:51:44;10.65;;;6.45;;
22660;SDS011;11497;52.222;21.246;2023-07-20T05:54:13;10.05;;;5.97;;
22660;SDS011;11497;52.222;21.246;2023-07-20T05:56:41;10.30;;;6.30;;
22660;SDS011;11497;52.222;21.246;2023-07-20T05:59:08;12.05;;;6.75;;
22660;SDS011;11497;52.222;21.246;2023-07-20T06:01:36;8.45;;;6.10;;
22660;SDS011;11497;52.222;21.246;2023-07-20T06:04:04;10.02;;;6.88;;
22660;SDS011;11497;52.222;21.246;2023-07-20T06:06:31;8.75;;;6.28;;
22660;SDS011;11497;52.222;21.246;2023-07-20T06:09:00;10.93;;;6.30;;
22660;SDS011;11497;52.222;21.246;2023-07-20T06:11:30;9.07;;;6.00;;
22660;SDS011;11497;52.222;21.246;2023-07-20T06:13:59;9.65;;;6.38;;
22660;SDS011;11497;52.222;21.246;2023-07-20T06:16:27;10.07;;;6.43;;
22660;SDS011;11497;52.222;21.246;2023-07-20T06:18:55;8.55;;;6.70;;
22660;SDS011;11497;52.222;21.246;2023-07-20T06:21:23;9.77;;;6.75;;
22660;SDS011;11497;52.222;21.246;2023-07-20T06:23:51;9.82;;;7.03;;
22660;SDS011;11497;52.222;21.246;2023-07-20T06:26:18;10.68;;;7.32;;
22660;SDS011;11497;52.222;21.246;2023-07-20T06:28:47;17.63;;;7.78;;
22660;SDS011;11497;52.222;21.246;2023-07-20T06:31:14;12.30;;;7.30;;
22660;SDS011;11497;52.222;21.246;2023-07-20T06:33:42;9.50;;;6.60;;
22660;SDS011;11497;52.222;21.246;2023-07-20T06:36:10;17.85;;;12.15;;
22660;SDS011;11497;52.222;21.246;2023-07-20T06:38:38;13.50;;;7.50;;
22660;SDS011;11497;52.222;21.246;2023-07-20T06:41:05;10.20;;;6.97;;
22660;SDS011;11497;52.222;21.246;2023-07-20T06:43:36;15.63;;;8.77;;
22660;SDS011;11497;52.222;21.246;2023-07-20T06:46:06;17.45;;;8.13;;
22660;SDS011;11497;52.222;21.246;2023-07-20T06:48:34;9.45;;;7.55;;
22660;SDS011;11497;52.222;21.246;2023-07-20T06:51:22;12.93;;;7.47;;
22660;SDS011;11497;52.222;21.246;2023-07-20T06:53:51;11.55;;;7.47;;
22660;SDS011;11497;52.222;21.246;2023-07-20T06:56:18;13.63;;;6.55;;
22660;SDS011;11497;52.222;21.246;2023-07-20T06:58:50;13.00;;;7.03;;
22660;SDS011;11497;52.222;21.246;2023-07-20T07:01:18;13.93;;;6.95;;
22660;SDS011;11497;52.222;21.246;2023-07-20T07:03:48;11.68;;;7.03;;
22660;SDS011;11497;52.222;21.246;2023-07-20T07:06:21;12.30;;;6.68;;
22660;SDS011;11497;52.222;21.246;2023-07-20T07:08:51;11.20;;;7.00;;
22660;SDS011;11497;52.222;21.246;2023-07-20T07:11:20;10.30;;;6.95;;
22660;SDS011;11497;52.222;21.246;2023-07-20T07:13:48;14.23;;;6.82;;
22660;SDS011;11497;52.222;21.246;2023-07-20T07:16:17;10.93;;;6.68;;
22660;SDS011;11497;52.222;21.246;2023-07-20T07:18:47;10.20;;;7.00;;
22660;SDS011;11497;52.222;21.246;2023-07-20T07:21:14;12.48;;;6.40;;
22660;SDS011;11497;52.222;21.246;2023-07-20T07:23:43;10.45;;;6.90;;
22660;SDS011;11497;52.222;21.246;2023-07-20T07:26:10;8.90;;;6.43;;
22660;SDS011;11497;52.222;21.246;2023-07-20T07:28:38;11.50;;;6.80;;
22660;SDS011;11497;52.222;21.246;2023-07-20T07:31:06;7.85;;;6.53;;
22660;SDS011;11497;52.222;21.246;2023-07-20T07:33:34;11.82;;;7.03;;
22660;SDS011;11497;52.222;21.246;2023-07-20T07:36:02;10.05;;;6.65;;
22660;SDS011;11497;52.222;21.246;2023-07-20T07:38:29;10.60;;;6.63;;
22660;SDS011;11497;52.222;21.246;2023-07-20T07:41:17;8.52;;;6.18;;
22660;SDS011;11497;52.222;21.246;2023-07-20T07:43:45;16.10;;;11.48;;
22660;SDS011;11497;52.222;21.246;2023-07-20T07:46:12;22.33;;;15.80;;
22660;SDS011;11497;52.222;21.246;2023-07-20T07:48:42;16.27;;;8.45;;
22660;SDS011;11497;52.222;21.246;2023-07-20T07:51:09;15.07;;;7.10;;
22660;SDS011;11497;52.222;21.246;2023-07-20T07:53:37;10.07;;;6.80;;
22660;SDS011;11497;52.222;21.246;2023-07-20T07:56:06;9.60;;;6.63;;
22660;SDS011;11497;52.222;21.246;2023-07-20T07:58:35;14.23;;;7.18;;
22660;SDS011;11497;52.222;21.246;2023-07-20T08:01:02;7.68;;;6.38;;
22660;SDS011;11497;52.222;21.246;2023-07-20T08:03:30;14.02;;;7.28;;
22660;SDS011;11497;52.222;21.246;2023-07-20T08:05:58;9.13;;;6.40;;
22660;SDS011;11497;52.222;21.246;2023-07-20T08:08:26;13.68;;;7.50;;
22660;SDS011;11497;52.222;21.246;2023-07-20T08:10:54;11.77;;;7.18;;
22660;SDS011;11497;52.222;21.246;2023-07-20T08:13:22;9.50;;;7.15;;
22660;SDS011;11497;52.222;21.246;2023-07-20T08:15:50;11.93;;;7.47;;
22660;SDS011;11497;52.222;21.246;2023-07-20T08:18:19;8.63;;;7.03;;
22660;SDS011;11497;52.222;21.246;2023-07-20T08:20:47;12.50;;;7.30;;
22660;SDS011;11497;52.222;21.246;2023-07-20T08:23:15;9.43;;;7.32;;
22660;SDS011;11497;52.222;21.246;2023-07-20T08:25:43;11.40;;;7.63;;
22660;SDS011;11497;52.222;21.246;2023-07-20T08:28:11;11.52;;;8.32;;
22660;SDS011;11497;52.222;21.246;2023-07-20T08:30:43;11.52;;;7.80;;
22660;SDS011;11497;52.222;21.246;2023-07-20T08:33:13;11.02;;;8.63;;
22660;SDS011;11497;52.222;21.246;2023-07-20T08:35:40;10.25;;;8.75;;
22660;SDS011;11497;52.222;21.246;2023-07-20T08:38:09;11.35;;;7.85;;
22660;SDS011;11497;52.222;21.246;2023-07-20T08:40:41;10.18;;;7.82;;
22660;SDS011;11497;52.222;21.246;2023-07-20T08:43:12;12.38;;;8.23;;
22660;SDS011;11497;52.222;21.246;2023-07-20T08:45:40;12.00;;;8.40;;
22660;SDS011;11497;52.222;21.246;2023-07-20T08:48:08;12.43;;;8.63;;
22660;SDS011;11497;52.222;21.246;2023-07-20T08:50:36;10.23;;;8.07;;
22660;SDS011;11497;52.222;21.246;2023-07-20T08:53:04;12.50;;;8.18;;
22660;SDS011;11497;52.222;21.246;2023-07-20T08:55:32;10.18;;;8.00;;
22660;SDS011;11497;52.222;21.246;2023-07-20T08:58:00;14.95;;;9.60;;
22660;SDS011;11497;52.222;21.246;2023-07-20T09:00:28;14.77;;;8.25;;
22660;SDS011;11497;52.222;21.246;2023-07-20T09:02:56;11.02;;;8.30;;
22660;SDS011;11497;52.222;21.246;2023-07-20T09:05:25;12.25;;;8.00;;
22660;SDS011;11497;52.222;21.246;2023-07-20T09:07:53;12.15;;;8.32;;
22660;SDS011;11497;52.222;21.246;2023-07-20T09:10:21;9.45;;;8.18;;
22660;SDS011;11497;52.222;21.246;2023-07-20T09:12:49;10.07;;;8.52;;
22660;SDS011;11497;52.222;21.246;2023-07-20T09:15:18;11.15;;;8.07;;
22660;SDS011;11497;52.222;21.246;2023-07-20T09:17:47;13.48;;;9.20;;
22660;SDS011;11497;52.222;21.246;2023-07-20T09:20:16;12.23;;;8.85;;
22660;SDS011;11497;52.222;21.246;2023-07-20T09:22:50;14.38;;;9.30;;
22660;SDS011;11497;52.222;21.246;2023-07-20T09:25:19;11.43;;;8.70;;
22660;SDS011;11497;52.222;21.246;2023-07-20T09:27:49;15.85;;;9.52;;
22660;SDS011;11497;52.222;21.246;2023-07-20T09:30:18;12.57;;;8.73;;
22660;SDS011;11497;52.222;21.246;2023-07-20T09:32:46;11.48;;;8.88;;
22660;SDS011;11497;52.222;21.246;2023-07-20T09:35:18;12.18;;;8.93;;
22660;SDS011;11497;52.222;21.246;2023-07-20T09:37:58;12.90;;;9.18;;
22660;SDS011;11497;52.222;21.246;2023-07-20T09:40:29;11.57;;;8.00;;
22660;SDS011;11497;52.222;21.246;2023-07-20T09:42:59;11.65;;;8.88;;
22660;SDS011;11497;52.222;21.246;2023-07-20T09:45:41;34.45;;;11.82;;
22660;SDS011;11497;52.222;21.246;2023-07-20T09:48:12;13.10;;;9.55;;
22660;SDS011;11497;52.222;21.246;2023-07-20T09:50:43;9.93;;;7.82;;
22660;SDS011;11497;52.222;21.246;2023-07-20T09:53:11;8.85;;;7.18;;
22660;SDS011;11497;52.222;21.246;2023-07-20T09:55:40;10.88;;;7.68;;
22660;SDS011;11497;52.222;21.246;2023-07-20T09:58:11;10.30;;;7.25;;
22660;SDS011;11497;52.222;21.246;2023-07-20T10:00:40;19.05;;;13.20;;
22660;SDS011;11497;52.222;21.246;2023-07-20T10:03:16;6.68;;;4.70;;
22660;SDS011;11497;52.222;21.246;2023-07-20T10:05:56;4.88;;;4.28;;
22660;SDS011;11497;52.222;21.246;2023-07-20T10:08:25;6.60;;;4.82;;
22660;SDS011;11497;52.222;21.246;2023-07-20T10:10:57;8.95;;;5.90;;
22660;SDS011;11497;52.222;21.246;2023-07-20T10:13:29;10.85;;;7.00;;
22660;SDS011;11497;52.222;21.246;2023-07-20T10:16:02;5.53;;;3.63;;
22660;SDS011;11497;52.222;21.246;2023-07-20T10:20:59;6.07;;;3.10;;
22660;SDS011;11497;52.222;21.246;2023-07-20T10:23:30;4.55;;;3.72;;
22660;SDS011;11497;52.222;21.246;2023-07-20T10:25:58;6.47;;;3.40;;
22660;SDS011;11497;52.222;21.246;2023-07-20T10:28:27;4.50;;;3.10;;
22660;SDS011;11497;52.222;21.246;2023-07-20T10:30:55;5.22;;;3.60;;
22660;SDS011;11497;52.222;21.246;2023-07-20T10:33:23;201.55;;;18.08;;
22660;SDS011;11497;52.222;21.246;2023-07-20T10:38:19;6.13;;;3.67;;
22660;SDS011;11497;52.222;21.246;2023-07-20T10:40:56;5.85;;;3.65;;
22660;SDS011;11497;52.222;21.246;2023-07-20T10:43:24;5.00;;;3.50;;
22660;SDS011;11497;52.222;21.246;2023-07-20T10:45:52;4.28;;;3.30;;
22660;SDS011;11497;52.222;21.246;2023-07-20T10:48:23;4.72;;;3.20;;
22660;SDS011;11497;52.222;21.246;2023-07-20T10:53:38;6.13;;;3.78;;
22660;SDS011;11497;52.222;21.246;2023-07-20T10:56:07;5.55;;;3.67;;
22660;SDS011;11497;52.222;21.246;2023-07-20T10:58:35;4.32;;;3.67;;
22660;SDS011;11497;52.222;21.246;2023-07-20T11:01:03;4.50;;;3.20;;
22660;SDS011;11497;52.222;21.246;2023-07-20T11:03:34;21.73;;;4.30;;
22660;SDS011;11497;52.222;21.246;2023-07-20T11:09:10;7.25;;;3.88;;
22660;SDS011;11497;52.222;21.246;2023-07-20T11:14:10;4.93;;;3.38;;
22660;SDS011;11497;52.222;21.246;2023-07-20T11:19:14;4.50;;;3.38;;
22660;SDS011;11497;52.222;21.246;2023-07-20T11:24:30;10.77;;;3.60;;
22660;SDS011;11497;52.222;21.246;2023-07-20T11:26:59;9.73;;;4.00;;
22660;SDS011;11497;52.222;21.246;2023-07-20T11:29:28;5.88;;;3.60;;
22660;SDS011;11497;52.222;21.246;2023-07-20T11:32:01;8.50;;;3.60;;
22660;SDS011;11497;52.222;21.246;2023-07-20T11:34:32;4.90;;;3.55;;
22660;SDS011;11497;52.222;21.246;2023-07-20T11:37:00;8.30;;;3.50;;
22660;SDS011;11497;52.222;21.246;2023-07-20T11:39:32;5.13;;;3.20;;
22660;SDS011;11497;52.222;21.246;2023-07-20T11:42:00;8.02;;;3.55;;
22660;SDS011;11497;52.222;21.246;2023-07-20T11:44:28;4.18;;;3.30;;
22660;SDS011;11497;52.222;21.246;2023-07-20T11:47:12;7.43;;;2.90;;
22660;SDS011;11497;52.222;21.246;2023-07-20T11:49:43;5.97;;;3.55;;
22660;SDS011;11497;52.222;21.246;2023-07-20T11:52:16;5.85;;;3.45;;
22660;SDS011;11497;52.222;21.246;2023-07-20T11:54:44;5.95;;;3.38;;
22660;SDS011;11497;52.222;21.246;2023-07-20T11:57:16;8.20;;;3.70;;
22660;SDS011;11497;52.222;21.246;2023-07-20T11:59:56;3.95;;;2.97;;
22660;SDS011;11497;52.222;21.246;2023-07-20T12:02:29;3.50;;;3.00;;
22660;SDS011;11497;52.222;21.246;2023-07-20T12:04:57;3.42;;;2.55;;
22660;SDS011;11497;52.222;21.246;2023-07-20T12:07:26;6.45;;;2.83;;
22660;SDS011;11497;52.222;21.246;2023-07-20T12:10:12;3.47;;;2.70;;
22660;SDS011;11497;52.222;21.246;2023-07-20T12:12:40;3.63;;;2.42;;
22660;SDS011;11497;52.222;21.246;2023-07-20T12:15:16;2.95;;;2.50;;
22660;SDS011;11497;52.222;21.246;2023-07-20T12:17:44;2.70;;;2.50;;
22660;SDS011;11497;52.222;21.246;2023-07-20T12:20:13;6.20;;;3.97;;
22660;SDS011;11497;52.222;21.246;2023-07-20T12:22:40;4.07;;;3.13;;
22660;SDS011;11497;52.222;21.246;2023-07-20T12:25:09;6.22;;;3.40;;
22660;SDS011;11497;52.222;21.246;2023-07-20T12:27:36;5.78;;;2.88;;
22660;SDS011;11497;52.222;21.246;2023-07-20T12:30:08;3.30;;;2.40;;
22660;SDS011;11497;52.222;21.246;2023-07-20T12:32:36;4.47;;;2.45;;
22660;SDS011;11497;52.222;21.246;2023-07-20T12:35:04;3.53;;;2.47;;
22660;SDS011;11497;52.222;21.246;2023-07-20T12:37:32;5.65;;;2.40;;
22660;SDS011;11497;52.222;21.246;2023-07-20T12:40:00;5.78;;;2.58;;
22660;SDS011;11497;52.222;21.246;2023-07-20T12:42:28;6.55;;;3.00;;
22660;SDS011;11497;52.222;21.246;2023-07-20T12:44:56;6.15;;;2.75;;
22660;SDS011;11497;52.222;21.246;2023-07-20T12:47:24;4.88;;;2.75;;
22660;SDS011;11497;52.222;21.246;2023-07-20T12:49:51;4.22;;;2.30;;
22660;SDS011;11497;52.222;21.246;2023-07-20T12:52:19;3.67;;;2.08;;
22660;SDS011;11497;52.222;21.246;2023-07-20T12:54:47;11.80;;;5.43;;
22660;SDS011;11497;52.222;21.246;2023-07-20T12:57:15;6.00;;;3.25;;
22660;SDS011;11497;52.222;21.246;2023-07-20T12:59:43;5.72;;;3.72;;
22660;SDS011;11497;52.222;21.246;2023-07-20T13:02:10;3.85;;;2.42;;
22660;SDS011;11497;52.222;21.246;2023-07-20T13:04:38;5.93;;;2.45;;
22660;SDS011;11497;52.222;21.246;2023-07-20T13:07:09;2.63;;;2.42;;
22660;SDS011;11497;52.222;21.246;2023-07-20T13:09:43;4.72;;;2.20;;
22660;SDS011;11497;52.222;21.246;2023-07-20T13:12:10;3.65;;;2.17;;
22660;SDS011;11497;52.222;21.246;2023-07-20T13:14:38;3.78;;;2.70;;
22660;SDS011;11497;52.222;21.246;2023-07-20T13:17:06;4.15;;;2.28;;
22660;SDS011;11497;52.222;21.246;2023-07-20T13:19:35;3.75;;;2.50;;
22660;SDS011;11497;52.222;21.246;2023-07-20T13:22:02;7.20;;;2.47;;
22660;SDS011;11497;52.222;21.246;2023-07-20T13:24:30;4.40;;;2.00;;
22660;SDS011;11497;52.222;21.246;2023-07-20T13:26:58;4.55;;;2.17;;
22660;SDS011;11497;52.222;21.246;2023-07-20T13:29:26;3.75;;;2.22;;
22660;SDS011;11497;52.222;21.246;2023-07-20T13:31:54;3.67;;;2.60;;
22660;SDS011;11497;52.222;21.246;2023-07-20T13:34:21;2.20;;;2.00;;
22660;SDS011;11497;52.222;21.246;2023-07-20T13:36:51;4.30;;;2.30;;
22660;SDS011;11497;52.222;21.246;2023-07-20T13:39:18;5.28;;;2.40;;
22660;SDS011;11497;52.222;21.246;2023-07-20T13:41:46;8.50;;;3.08;;
22660;SDS011;11497;52.222;21.246;2023-07-20T13:44:14;2.60;;;2.40;;
22660;SDS011;11497;52.222;21.246;2023-07-20T13:46:48;3.55;;;2.45;;
22660;SDS011;11497;52.222;21.246;2023-07-20T13:49:16;2.85;;;2.38;;
22660;SDS011;11497;52.222;21.246;2023-07-20T13:51:49;4.25;;;2.40;;
22660;SDS011;11497;52.222;21.246;2023-07-20T13:54:37;2.80;;;2.30;;
22660;SDS011;11497;52.222;21.246;2023-07-20T13:57:14;3.58;;;2.40;;
22660;SDS011;11497;52.222;21.246;2023-07-20T13:59:42;5.15;;;2.40;;
22660;SDS011;11497;52.222;21.246;2023-07-20T14:02:10;5.10;;;2.30;;
22660;SDS011;11497;52.222;21.246;2023-07-20T14:04:40;4.38;;;1.85;;
22660;SDS011;11497;52.222;21.246;2023-07-20T14:07:09;3.75;;;1.95;;
22660;SDS011;11497;52.222;21.246;2023-07-20T14:09:37;3.75;;;2.35;;
22660;SDS011;11497;52.222;21.246;2023-07-20T14:12:25;4.63;;;2.25;;
22660;SDS011;11497;52.222;21.246;2023-07-20T14:14:53;4.18;;;2.13;;
22660;SDS011;11497;52.222;21.246;2023-07-20T14:17:22;3.50;;;2.40;;
22660;SDS011;11497;52.222;21.246;2023-07-20T14:19:52;2.47;;;2.28;;
22660;SDS011;11497;52.222;21.246;2023-07-20T14:22:20;5.40;;;2.65;;
22660;SDS011;11497;52.222;21.246;2023-07-20T14:24:48;7.10;;;2.60;;
22660;SDS011;11497;52.222;21.246;2023-07-20T14:27:16;4.95;;;2.88;;
22660;SDS011;11497;52.222;21.246;2023-07-20T14:29:43;5.72;;;2.72;;
22660;SDS011;11497;52.222;21.246;2023-07-20T14:32:11;19.20;;;3.20;;
22660;SDS011;11497;52.222;21.246;2023-07-20T14:34:39;3.95;;;2.90;;
22660;SDS011;11497;52.222;21.246;2023-07-20T14:37:07;3.95;;;2.83;;
22660;SDS011;11497;52.222;21.246;2023-07-20T14:39:35;3.33;;;2.55;;
22660;SDS011;11497;52.222;21.246;2023-07-20T14:42:03;4.88;;;3.10;;
22660;SDS011;11497;52.222;21.246;2023-07-20T14:44:30;5.15;;;3.15;;
22660;SDS011;11497;52.222;21.246;2023-07-20T14:46:58;3.80;;;2.90;;
22660;SDS011;11497;52.222;21.246;2023-07-20T14:49:40;5.03;;;2.85;;
22660;SDS011;11497;52.222;21.246;2023-07-20T14:52:07;4.07;;;2.97;;
22660;SDS011;11497;52.222;21.246;2023-07-20T14:54:39;4.75;;;3.08;;
22660;SDS011;11497;52.222;21.246;2023-07-20T14:57:07;3.10;;;2.80;;
22660;SDS011;11497;52.222;21.246;2023-07-20T14:59:41;3.88;;;2.75;;
22660;SDS011;11497;52.222;21.246;2023-07-20T15:02:09;4.57;;;2.53;;
22660;SDS011;11497;52.222;21.246;2023-07-20T15:04:37;2.70;;;2.22;;
22660;SDS011;11497;52.222;21.246;2023-07-20T15:07:05;3.38;;;2.25;;
22660;SDS011;11497;52.222;21.246;2023-07-20T15:09:32;4.38;;;2.50;;
22660;SDS011;11497;52.222;21.246;2023-07-20T15:12:01;3.42;;;2.22;;